Date,TemperatureHighF,TemperatureAvgF,TemperatureLowF,DewpointHighF,DewpointAvgF,DewpointLowF,HumidityHigh,HumidityAvg,HumidityLow,PressureMaxIn,PressureMinIn,WindSpeedMaxMPH,WindSpeedAvgMPH,GustSpeedMaxMPH,PrecipitationSumIn
2013-10-1,80.7,65.9,55.9,64.0,57.9,50.1,96,77,55,29.93,29.80,6,1,20,0.00
2013-10-2,78.3,61.9,46.2,54.7,47.8,40.8,99,65,28,30.09,29.93,2,0,8,0.00
2013-10-3,76.3,64.9,55.5,67.7,60.9,45.0,98,87,61,29.94,29.77,6,1,18,0.00
2013-10-4,66.5,64.5,61.4,66.2,64.0,60.9,100,98,96,29.95,29.82,1,0,9,0.30
2013-10-5,72.4,64.8,56.3,70.4,64.0,48.4,100,97,74,29.90,29.70,5,0,19,0.10
2013-10-6,58.9,49.5,41.9,47.5,42.7,40.0,98,79,54,29.74,29.65,5,0,15,0.03
2013-10-7,70.2,52.8,42.8,50.3,45.1,41.2,96,78,41,30.07,29.71,5,1,18,0.00
2013-10-8,75.2,58.0,41.3,53.5,46.2,40.2,98,69,36,30.13,30.06,7,1,18,0.00
2013-10-9,73.4,59.2,48.8,52.4,47.2,42.3,90,67,36,30.18,30.09,5,1,18,0.00
2013-10-10,74.2,56.9,41.9,55.0,48.2,40.8,99,76,41,30.14,30.01,5,0,12,0.00
2013-10-11,74.3,60.8,47.1,60.7,54.1,45.8,98,80,57,30.02,29.86,8,1,23,0.00
2013-10-12,69.1,60.1,43.8,60.4,50.9,39.0,94,74,41,30.13,29.85,5,1,18,0.03
2013-10-13,66.4,48.3,35.9,44.9,38.0,34.3,97,71,35,30.40,30.13,4,0,15,0.00
2013-10-14,63.1,45.3,32.9,46.9,39.3,31.6,99,82,53,30.42,30.11,2,0,12,0.00
2013-10-15,59.1,52.2,47.7,58.4,48.7,43.4,99,88,75,30.10,29.70,6,1,21,0.26
2013-10-16,52.5,48.6,46.0,49.0,46.4,43.9,97,92,83,29.93,29.76,4,1,14,0.06
2013-10-17,54.4,46.0,40.4,46.0,42.8,38.0,98,89,63,29.91,29.80,4,0,10,0.13
2013-10-18,46.7,42.3,38.5,42.7,38.4,36.4,96,87,74,29.94,29.80,4,1,16,0.00
2013-10-19,51.1,40.6,32.9,40.9,36.3,31.4,95,85,50,29.91,29.72,6,1,19,0.03
2013-10-20,48.0,40.5,30.6,46.4,38.4,29.8,99,92,77,29.85,29.70,3,0,14,0.10
2013-10-21,45.1,37.9,29.0,42.7,30.2,23.6,92,74,56,29.96,29.75,4,1,20,0.00
2013-10-22,48.0,35.2,23.4,33.1,27.7,20.9,93,75,52,29.99,29.91,2,0,8,0.00
2013-10-23,45.0,34.3,25.7,31.2,27.6,24.1,96,78,50,30.04,29.96,3,0,12,0.00
2013-10-24,45.9,36.0,30.1,29.7,26.5,23.9,85,69,50,30.30,30.04,4,1,15,0.00
2013-10-25,51.3,39.5,26.3,33.7,27.7,23.2,92,65,45,30.38,29.93,7,2,29,0.00
2013-10-26,52.8,44.0,34.3,38.2,31.0,27.7,82,61,45,30.07,29.79,9,2,24,0.00
2013-10-27,54.3,40.8,28.6,34.0,30.0,26.0,91,68,41,30.06,29.90,6,1,22,0.00
2013-10-28,43.4,39.9,36.8,33.6,32.0,29.0,87,73,65,30.41,30.03,4,1,11,0.00
2013-10-29,50.1,42.8,36.1,42.4,36.7,29.0,89,79,70,30.40,30.12,2,0,9,0.00
2013-10-30,55.1,49.2,42.0,54.8,48.4,39.8,100,97,89,30.12,29.71,7,1,22,0.00
2013-10-31,60.6,54.3,42.1,60.6,53.7,39.9,100,98,92,29.72,29.24,6,2,18,1.03